Time;durP1;ratioP1;P1;durP2;ratioP2;P2;SDS_P1;SDS_P2;PMS_P1;PMS_P2;Temp;Humidity;BMP_temperature;BMP_pressure;BME280_temperature;BME280_humidity;BME280_pressure;Samples;Min_cycle;Max_cycle;Signal;HPM_P1;HPM_P2
2023/12/14 00:01:15;;;;;;;3.87;2.73;;;16.50;71.70;17.40;99790.00;;;;5057822;28;20297;-45
2023/12/14 00:03:42;;;;;;;3.97;3.00;;;16.50;71.70;17.40;99813.00;;;;5058221;28;20279;-45
2023/12/14 00:06:08;;;;;;;3.10;2.80;;;16.50;71.60;17.30;99819.00;;;;5056754;28;20221;-45
2023/12/14 00:08:34;;;;;;;3.30;2.67;;;16.50;71.70;17.40;99811.00;;;;5059088;28;20207;-44
2023/12/14 00:11:10;;;;;;;4.07;2.80;;;16.50;72.00;17.40;99811.00;;;;5052120;28;20210;-44
2023/12/14 00:13:36;;;;;;;4.20;2.90;;;16.50;71.80;17.30;99820.00;;;;5053372;28;20617;-45
2023/12/14 00:16:02;;;;;;;3.07;2.87;;;16.50;71.90;17.30;99830.00;;;;5056672;28;20210;-44
2023/12/14 00:18:28;;;;;;;3.10;2.80;;;16.50;71.90;17.30;99832.00;;;;5059996;28;20235;-44
2023/12/14 00:20:54;;;;;;;3.50;2.73;;;16.50;71.90;17.30;99834.00;;;;5059148;28;21571;-45
2023/12/14 00:23:20;;;;;;;3.13;2.83;;;16.40;71.70;17.30;99837.00;;;;5057755;28;20185;-45
2023/12/14 00:25:46;;;;;;;3.33;3.03;;;16.50;71.90;17.30;99842.00;;;;5058451;28;20258;-44
2023/12/14 00:28:12;;;;;;;3.00;2.70;;;16.40;71.70;17.30;99847.00;;;;5056775;28;20283;-44
2023/12/14 00:30:37;;;;;;;3.00;2.70;;;16.40;71.60;17.30;99838.00;;;;5059279;28;20258;-44
2023/12/14 00:33:03;;;;;;;5.23;2.53;;;16.40;71.70;17.30;99848.00;;;;5054646;28;20604;-44
2023/12/14 00:35:29;;;;;;;3.00;2.70;;;16.40;71.70;17.30;99843.00;;;;5059093;28;20172;-46
2023/12/14 00:37:55;;;;;;;5.03;3.10;;;16.40;71.70;17.30;99851.00;;;;5056950;28;20258;-45
2023/12/14 00:40:20;;;;;;;3.50;2.40;;;16.40;71.90;17.30;99867.00;;;;5057927;28;20233;-45
2023/12/14 00:42:46;;;;;;;3.00;2.70;;;16.40;71.90;17.30;99862.00;;;;5058211;28;20178;-45
2023/12/14 00:45:12;;;;;;;2.93;2.63;;;16.40;71.90;17.30;99866.00;;;;5055396;28;20181;-45
2023/12/14 00:47:38;;;;;;;2.80;2.60;;;16.40;71.90;17.30;99875.00;;;;5058971;28;20261;-45
2023/12/14 00:50:04;;;;;;;3.03;2.73;;;16.30;71.70;17.30;99876.00;;;;5056283;28;20194;-45
2023/12/14 00:52:30;;;;;;;2.87;2.57;;;16.40;71.70;17.30;99882.00;;;;5058680;28;20177;-45
2023/12/14 00:54:55;;;;;;;3.87;2.80;;;16.30;71.50;17.30;99888.00;;;;5056312;28;20240;-46
2023/12/14 00:57:21;;;;;;;3.47;2.60;;;16.40;71.50;17.30;99897.00;;;;5057361;28;20214;-45
2023/12/14 00:59:47;;;;;;;2.90;2.60;;;16.30;71.50;17.30;99902.00;;;;5057668;28;20180;-45
2023/12/14 01:02:13;;;;;;;3.13;2.70;;;16.30;71.50;17.30;99910.00;;;;5055366;28;20176;-45
2023/12/14 01:04:38;;;;;;;3.23;2.83;;;16.30;71.40;17.30;99918.00;;;;5058520;28;20181;-46
2023/12/14 01:07:04;;;;;;;2.80;2.60;;;16.30;71.30;17.30;99913.00;;;;5054778;28;20191;-45
2023/12/14 01:09:30;;;;;;;3.33;2.93;;;16.30;71.50;17.30;99918.00;;;;5053943;28;20190;-46
2023/12/14 01:11:55;;;;;;;2.97;2.60;;;16.40;71.30;17.30;99920.00;;;;5055270;28;20268;-45
2023/12/14 01:14:21;;;;;;;2.60;2.40;;;16.30;71.20;17.30;99923.00;;;;5056512;28;20307;-46
2023/12/14 01:16:47;;;;;;;2.77;2.57;;;16.30;71.20;17.30;99927.00;;;;5056848;28;20198;-46
2023/12/14 01:19:13;;;;;;;3.23;2.60;;;16.30;71.20;17.30;99927.00;;;;5054273;28;20204;-46
2023/12/14 01:21:39;;;;;;;2.90;2.60;;;16.30;71.20;17.30;99939.00;;;;5057907;28;20177;-46
2023/12/14 01:24:05;;;;;;;2.90;2.70;;;16.30;71.20;17.20;99947.00;;;;5054645;28;20180;-46
2023/12/14 01:26:30;;;;;;;2.97;2.73;;;16.30;71.30;17.20;99947.00;;;;5058696;28;20690;-46
2023/12/14 01:28:56;;;;;;;2.60;2.40;;;16.20;71.30;17.20;99961.00;;;;5055516;28;20209;-46
2023/12/14 01:31:23;;;;;;;2.73;2.53;;;16.30;71.20;17.20;99959.00;;;;5056580;28;20257;-45
2023/12/14 01:33:49;;;;;;;2.93;2.73;;;16.20;71.30;17.20;99957.00;;;;5054574;28;20204;-46
2023/12/14 01:36:22;;;;;;;2.60;2.40;;;16.30;71.30;17.20;99961.00;;;;5055250;28;20192;-45
2023/12/14 01:38:48;;;;;;;2.80;2.60;;;16.30;71.60;17.20;99961.00;;;;5056486;28;20354;-50
2023/12/14 01:41:13;;;;;;;2.60;2.40;;;16.20;71.50;17.20;99964.00;;;;5055336;28;20178;-45
2023/12/14 01:43:39;;;;;;;2.97;2.77;;;16.30;72.10;17.10;99975.00;;;;5057375;28;20258;-45
2023/12/14 01:46:05;;;;;;;2.73;2.53;;;16.20;71.60;17.10;99972.00;;;;5055000;28;20236;-45
2023/12/14 01:48:31;;;;;;;2.80;2.60;;;16.20;71.60;17.10;99968.00;;;;5056565;28;20296;-45
2023/12/14 01:50:56;;;;;;;2.70;2.50;;;16.20;71.60;17.10;99977.00;;;;5055392;28;20194;-45
2023/12/14 01:53:22;;;;;;;2.80;2.60;;;16.20;71.50;17.10;99977.00;;;;5056341;28;20174;-45
2023/12/14 01:55:48;;;;;;;2.70;2.50;;;16.20;71.70;17.10;99992.00;;;;5056720;28;20180;-45
2023/12/14 01:58:14;;;;;;;2.80;2.60;;;16.20;71.40;17.10;99998.00;;;;5055001;28;20832;-46
2023/12/14 02:01:04;;;;;;;2.73;2.53;;;16.20;71.80;17.10;100006.00;;;;5056176;28;20177;-45
2023/12/14 02:03:30;;;;;;;2.97;2.60;;;16.20;71.50;17.10;100020.00;;;;5057566;28;20296;-46
2023/12/14 02:05:57;;;;;;;2.80;2.60;;;16.20;71.50;17.10;100012.00;;;;5055083;28;20263;-45
2023/12/14 02:08:24;;;;;;;2.77;2.57;;;16.20;71.60;17.10;100022.00;;;;5056307;28;20211;-45
2023/12/14 02:10:50;;;;;;;2.93;2.60;;;16.20;71.40;17.10;100020.00;;;;5056046;28;20184;-46
2023/12/14 02:13:15;;;;;;;2.80;2.50;;;16.20;71.30;17.10;100022.00;;;;5055092;28;20171;-46
2023/12/14 02:15:42;;;;;;;2.83;2.60;;;16.20;71.20;17.10;100034.00;;;;5057394;28;20769;-46
2023/12/14 02:18:08;;;;;;;2.80;2.60;;;16.10;71.30;17.10;100028.00;;;;5054198;28;20801;-46
2023/12/14 02:20:33;;;;;;;3.20;2.90;;;16.10;71.30;17.10;100047.00;;;;5062620;28;20171;-45
2023/12/14 02:22:59;;;;;;;2.90;2.70;;;16.10;71.40;17.10;100045.00;;;;5054574;28;20318;-45
2023/12/14 02:25:25;;;;;;;3.10;2.80;;;16.10;71.50;17.10;100056.00;;;;5056681;28;20236;-46
2023/12/14 02:27:51;;;;;;;2.80;2.60;;;16.10;71.40;17.10;100055.00;;;;5056856;28;20215;-46
2023/12/14 02:30:17;;;;;;;2.80;2.60;;;16.20;71.40;17.00;100064.00;;;;5055410;28;20187;-46
2023/12/14 02:32:43;;;;;;;3.00;2.80;;;16.10;71.30;17.00;100059.00;;;;5054954;28;20324;-45
2023/12/14 02:35:08;;;;;;;2.63;2.43;;;16.10;71.60;17.00;100062.00;;;;5054419;28;20704;-47
2023/12/14 02:37:37;;;;;;;2.90;2.70;;;16.10;71.60;17.00;100076.00;;;;5057696;28;20691;-45
2023/12/14 02:40:04;;;;;;;2.97;2.77;;;16.10;71.80;17.00;100064.00;;;;5049965;28;20659;-45
2023/12/14 02:42:30;;;;;;;3.30;3.00;;;16.10;71.80;17.00;100082.00;;;;5057061;28;20782;-45
2023/12/14 02:44:56;;;;;;;3.03;2.60;;;16.00;71.80;17.00;100082.00;;;;5054941;28;20283;-45
2023/12/14 02:47:22;;;;;;;3.33;3.03;;;16.00;71.70;17.00;100083.00;;;;5055910;28;20287;-45
2023/12/14 02:49:48;;;;;;;2.80;2.60;;;16.10;71.70;17.00;100093.00;;;;5051634;28;20197;-45
2023/12/14 02:52:14;;;;;;;2.60;2.40;;;16.00;71.80;17.00;100097.00;;;;5057548;28;20183;-45
2023/12/14 02:54:40;;;;;;;2.87;2.60;;;16.00;71.70;16.90;100114.00;;;;5060910;28;20203;-45
2023/12/14 02:57:06;;;;;;;3.20;2.90;;;16.00;71.80;16.90;100124.00;;;;5058339;28;20285;-45
2023/12/14 02:59:31;;;;;;;2.90;2.70;;;16.00;71.70;16.90;100115.00;;;;5060619;28;20174;-45
2023/12/14 03:01:57;;;;;;;2.90;2.70;;;16.00;71.60;16.90;100120.00;;;;5059553;28;20186;-45
2023/12/14 03:04:23;;;;;;;2.70;2.50;;;16.00;71.50;16.90;100122.00;;;;5058869;28;20199;-45
2023/12/14 03:06:49;;;;;;;2.87;2.67;;;16.00;71.70;16.90;100132.00;;;;5059567;28;20205;-45
2023/12/14 03:09:14;;;;;;;2.93;2.73;;;16.00;71.60;16.90;100140.00;;;;5058296;28;20179;-44
2023/12/14 03:11:40;;;;;;;2.70;2.50;;;16.00;71.60;16.90;100134.00;;;;5057203;28;20209;-45
2023/12/14 03:14:06;;;;;;;2.90;2.70;;;16.00;72.20;16.90;100128.00;;;;5054966;28;20198;-45
2023/12/14 03:16:31;;;;;;;2.83;2.63;;;16.00;72.10;16.90;100129.00;;;;5060267;28;20633;-45
2023/12/14 03:18:57;;;;;;;2.80;2.60;;;16.00;72.20;16.90;100147.00;;;;5058123;28;20699;-45
2023/12/14 03:21:23;;;;;;;3.00;2.70;;;16.00;72.10;16.80;100142.00;;;;5059284;28;20175;-45
2023/12/14 03:23:49;;;;;;;2.80;2.60;;;15.90;71.50;16.90;100149.00;;;;5057857;28;20231;-45
2023/12/14 03:26:15;;;;;;;2.70;2.50;;;15.90;71.60;16.90;100165.00;;;;5057707;28;20752;-46
2023/12/14 03:28:41;;;;;;;2.80;2.60;;;16.00;71.80;16.90;100169.00;;;;5057803;28;20258;-46
2023/12/14 03:31:07;;;;;;;2.80;2.60;;;15.90;71.80;16.80;100158.00;;;;5057495;28;20256;-45
2023/12/14 03:33:33;;;;;;;2.60;2.40;;;15.90;71.50;16.80;100175.00;;;;5057207;28;20247;-45
2023/12/14 03:35:59;;;;;;;2.70;2.50;;;15.90;71.80;16.80;100170.00;;;;5057631;28;20202;-45
2023/12/14 03:38:25;;;;;;;2.57;2.37;;;15.90;71.90;16.80;100174.00;;;;5059309;28;20182;-45
2023/12/14 03:40:50;;;;;;;2.70;2.50;;;15.90;71.90;16.80;100181.00;;;;5058664;28;20181;-46
2023/12/14 03:43:16;;;;;;;2.47;2.27;;;15.90;71.80;16.80;100190.00;;;;5057854;28;20182;-45
2023/12/14 03:45:42;;;;;;;2.73;2.53;;;15.90;71.80;16.80;100185.00;;;;5058192;28;20180;-45
2023/12/14 03:48:08;;;;;;;2.60;2.40;;;15.90;71.80;16.80;100197.00;;;;5057049;28;20206;-45
2023/12/14 03:50:33;;;;;;;2.60;2.40;;;15.90;71.80;16.70;100183.00;;;;5060274;28;20658;-45
2023/12/14 03:52:59;;;;;;;2.50;2.30;;;15.90;71.80;16.80;100193.00;;;;5057258;28;20208;-45
2023/12/14 03:55:25;;;;;;;2.50;2.30;;;15.80;71.60;16.80;100197.00;;;;5058943;28;20264;-44
2023/12/14 03:57:50;;;;;;;2.40;2.20;;;15.80;71.70;16.80;100206.00;;;;5060141;28;20198;-44
2023/12/14 04:00:16;;;;;;;2.50;2.30;;;15.80;71.50;16.80;100214.00;;;;5059862;28;20663;-44
2023/12/14 04:02:42;;;;;;;2.33;2.13;;;15.90;71.60;16.70;100189.00;;;;5057883;28;20219;-44
2023/12/14 04:05:09;;;;;;;2.40;2.20;;;15.80;71.60;16.70;100225.00;;;;5059028;28;20182;-44
2023/12/14 04:07:41;;;;;;;2.40;2.20;;;15.80;71.60;16.70;100221.00;;;;5061015;28;20193;-44
2023/12/14 04:10:10;;;;;;;2.40;2.20;;;15.80;71.60;16.70;100229.00;;;;5053688;28;20194;-45
2023/12/14 04:12:39;;;;;;;2.57;2.37;;;15.80;71.50;16.50;100241.00;;;;5053635;28;20170;-45
2023/12/14 04:15:06;;;;;;;2.23;2.10;;;15.80;71.60;16.70;100241.00;;;;5068610;28;20239;-44
2023/12/14 04:17:33;;;;;;;2.60;2.40;;;15.80;71.30;16.70;100241.00;;;;5060138;28;20195;-44
2023/12/14 04:19:58;;;;;;;2.53;2.33;;;15.80;71.30;16.70;100243.00;;;;5057610;28;20170;-45
2023/12/14 04:22:24;;;;;;;2.70;2.50;;;15.80;71.40;16.70;100258.00;;;;5057471;28;20524;-44
2023/12/14 04:24:53;;;;;;;2.50;2.30;;;15.80;71.30;16.70;100193.00;;;;5058553;28;20178;-45
2023/12/14 04:27:18;;;;;;;3.00;2.40;;;15.80;71.80;16.70;100261.00;;;;5058393;28;20690;-45
2023/12/14 04:29:44;;;;;;;3.00;2.30;;;15.80;71.30;16.70;100282.00;;;;5057600;28;20178;-45
2023/12/14 04:32:10;;;;;;;2.70;2.50;;;15.80;71.50;16.70;100270.00;;;;5058150;28;20182;-45
2023/12/14 04:34:36;;;;;;;2.60;2.40;;;15.80;71.30;16.70;100281.00;;;;5054306;28;20224;-45
2023/12/14 04:37:01;;;;;;;2.63;2.37;;;15.80;71.30;16.70;100275.00;;;;5057017;28;20196;-45
2023/12/14 04:39:27;;;;;;;2.90;2.70;;;15.80;71.20;16.70;100285.00;;;;5059089;28;20185;-45
2023/12/14 04:41:53;;;;;;;3.27;2.97;;;15.80;71.20;16.70;100276.00;;;;5058207;28;20226;-48
2023/12/14 04:44:21;;;;;;;4.53;3.30;;;15.80;70.90;16.70;100300.00;;;;5058103;28;20191;-45
2023/12/14 04:46:47;;;;;;;4.50;3.13;;;15.80;71.60;16.70;100292.00;;;;5059027;28;20228;-45
2023/12/14 04:49:13;;;;;;;4.20;3.90;;;15.80;70.70;16.70;100292.00;;;;5056984;28;20685;-45
2023/12/14 04:51:39;;;;;;;4.00;3.70;;;15.80;70.60;16.70;100296.00;;;;5059898;28;20185;-45
2023/12/14 04:54:04;;;;;;;5.00;4.60;;;15.70;70.40;16.70;100301.00;;;;5056425;28;20194;-45
2023/12/14 04:56:30;;;;;;;5.10;4.70;;;15.80;70.20;16.70;100308.00;;;;5057980;28;20318;-45
2023/12/14 04:58:56;;;;;;;6.30;5.03;;;15.80;70.10;16.70;100318.00;;;;5057236;28;20240;-45
2023/12/14 05:01:21;;;;;;;5.43;4.93;;;15.80;70.00;16.70;100323.00;;;;5058257;28;20238;-45
2023/12/14 05:03:47;;;;;;;5.73;5.23;;;15.80;70.00;16.70;100321.00;;;;5058983;28;20186;-45
2023/12/14 05:06:13;;;;;;;6.03;5.53;;;15.70;69.70;16.70;100326.00;;;;5056844;28;20202;-45
2023/12/14 05:08:39;;;;;;;5.93;5.43;;;15.70;69.60;16.70;100334.00;;;;5059628;28;20227;-45
2023/12/14 05:11:05;;;;;;;5.63;5.20;;;15.70;69.60;16.70;100336.00;;;;5056669;28;20720;-45
2023/12/14 05:13:30;;;;;;;5.43;4.93;;;15.70;69.50;16.70;100338.00;;;;5058723;28;21317;-45
2023/12/14 05:15:57;;;;;;;5.87;5.37;;;15.70;69.60;16.70;100341.00;;;;5057378;28;20188;-45
2023/12/14 05:18:24;;;;;;;6.90;5.23;;;15.70;69.60;16.70;100351.00;;;;5058194;28;20183;-45
2023/12/14 05:20:50;;;;;;;6.07;5.10;;;15.70;69.60;16.60;100348.00;;;;5057801;28;20207;-45
2023/12/14 05:23:16;;;;;;;6.23;5.73;;;15.70;69.60;16.60;100349.00;;;;5055591;28;20181;-45
2023/12/14 05:25:42;;;;;;;6.80;6.20;;;15.70;69.50;16.60;100355.00;;;;5059219;28;20166;-46
2023/12/14 05:28:08;;;;;;;6.83;5.80;;;15.70;69.50;16.60;100367.00;;;;5056998;28;20199;-46
2023/12/14 05:30:33;;;;;;;5.90;5.40;;;15.70;69.50;16.60;100368.00;;;;5059462;28;20185;-45
2023/12/14 05:32:59;;;;;;;6.47;5.97;;;15.70;69.50;16.60;100363.00;;;;5054241;28;20170;-45
2023/12/14 05:35:25;;;;;;;6.77;6.17;;;15.70;69.40;16.60;100355.00;;;;5057958;28;20285;-45
2023/12/14 05:37:51;;;;;;;7.10;6.40;;;15.70;69.40;16.60;100363.00;;;;5055549;28;20210;-45
2023/12/14 05:40:16;;;;;;;6.90;6.30;;;15.70;69.70;16.60;100371.00;;;;5056823;28;20205;-45
2023/12/14 05:42:42;;;;;;;6.83;6.23;;;15.70;69.60;16.60;100368.00;;;;5057872;28;20644;-45
2023/12/14 05:45:08;;;;;;;7.23;6.53;;;15.60;69.40;16.60;100378.00;;;;5056211;28;20232;-45
2023/12/14 05:47:34;;;;;;;7.80;6.67;;;15.60;69.30;16.60;100385.00;;;;5059269;28;20202;-45
2023/12/14 05:50:01;;;;;;;7.43;6.73;;;15.60;69.20;16.60;100387.00;;;;5056613;28;20182;-45
2023/12/14 05:52:27;;;;;;;7.13;6.43;;;15.60;69.10;16.60;100395.00;;;;5058163;28;20256;-45
2023/12/14 05:54:52;;;;;;;7.17;6.47;;;15.60;69.10;16.60;100402.00;;;;5057192;28;20213;-45
2023/12/14 05:57:18;;;;;;;6.97;6.37;;;15.60;69.10;16.60;100375.00;;;;5057056;28;20196;-45
2023/12/14 05:59:44;;;;;;;7.23;6.37;;;15.60;69.00;16.60;100401.00;;;;5057536;28;20223;-45
2023/12/14 06:02:10;;;;;;;7.80;7.00;;;15.60;69.00;16.60;100403.00;;;;5058201;28;20258;-49
2023/12/14 06:04:35;;;;;;;7.53;6.70;;;15.60;69.00;16.60;100410.00;;;;5060623;28;20178;-45
2023/12/14 06:07:01;;;;;;;7.33;6.67;;;15.60;68.90;16.50;100426.00;;;;5057012;28;20236;-45
2023/12/14 06:09:33;;;;;;;8.33;6.90;;;15.60;69.00;16.50;100428.00;;;;5054966;28;20179;-45
2023/12/14 06:12:03;;;;;;;8.80;7.60;;;15.50;69.00;16.50;100422.00;;;;5051451;28;20178;-45
2023/12/14 06:14:29;;;;;;;7.83;6.80;;;15.60;69.40;16.50;100440.00;;;;5055268;28;20228;-45
2023/12/14 06:16:55;;;;;;;9.30;6.80;;;15.50;69.30;16.50;100447.00;;;;5054205;28;20269;-45
2023/12/14 06:19:21;;;;;;;7.30;6.60;;;15.60;69.20;16.50;100442.00;;;;5055710;28;20179;-46
2023/12/14 06:21:47;;;;;;;8.20;7.40;;;15.60;69.20;16.50;100445.00;;;;5057625;28;20182;-45
2023/12/14 06:24:13;;;;;;;7.97;7.23;;;15.50;69.20;16.50;100455.00;;;;5055893;28;20175;-45
2023/12/14 06:26:43;;;;;;;9.93;7.43;;;15.50;69.10;16.50;100459.00;;;;5057975;28;20201;-45
2023/12/14 06:29:12;;;;;;;7.73;7.10;;;15.50;69.00;16.50;100472.00;;;;5059442;28;20210;-46
2023/12/14 06:31:38;;;;;;;7.73;7.03;;;15.50;69.00;16.50;100474.00;;;;5059401;28;20174;-46
2023/12/14 06:34:05;;;;;;;7.87;7.17;;;15.50;68.90;16.50;100483.00;;;;5052685;28;20702;-46
2023/12/14 06:36:31;;;;;;;8.03;7.23;;;15.50;68.90;16.50;100480.00;;;;5059632;28;20221;-46
2023/12/14 06:38:57;;;;;;;7.53;6.90;;;15.50;68.90;16.50;100486.00;;;;5059957;28;20225;-45
2023/12/14 06:41:23;;;;;;;7.77;7.00;;;15.50;68.90;16.50;100502.00;;;;5060699;28;20179;-45
2023/12/14 06:43:49;;;;;;;7.63;6.93;;;15.60;69.00;16.50;100507.00;;;;5060965;28;20174;-46
2023/12/14 06:46:15;;;;;;;7.80;7.10;;;15.50;68.90;16.50;100515.00;;;;5056039;28;20193;-45
2023/12/14 06:48:41;;;;;;;7.60;6.90;;;15.50;68.80;16.50;100514.00;;;;5061884;28;20236;-46
2023/12/14 06:51:07;;;;;;;7.10;6.50;;;15.50;68.90;16.40;100524.00;;;;5058611;28;20666;-46
2023/12/14 06:53:32;;;;;;;6.63;6.10;;;15.50;68.90;16.40;100525.00;;;;5060197;28;20185;-46
2023/12/14 06:55:58;;;;;;;8.00;7.20;;;15.50;68.90;16.50;100528.00;;;;5057087;28;20182;-46
2023/12/14 06:58:24;;;;;;;7.27;6.67;;;15.50;68.80;16.40;100544.00;;;;5059821;28;20178;-46
2023/12/14 07:00:50;;;;;;;7.10;6.50;;;15.50;68.80;16.40;100541.00;;;;5060337;28;20656;-45
2023/12/14 07:03:16;;;;;;;7.37;6.77;;;15.50;68.70;16.40;100544.00;;;;5059880;28;20169;-45
2023/12/14 07:05:41;;;;;;;7.50;6.90;;;15.50;68.70;16.40;100555.00;;;;5058232;28;20186;-46
2023/12/14 07:08:07;;;;;;;7.23;6.63;;;15.40;68.50;16.40;100547.00;;;;5058748;28;20197;-46
2023/12/14 07:10:33;;;;;;;7.27;6.57;;;15.50;68.90;16.40;100561.00;;;;5060939;28;20184;-45
2023/12/14 07:12:59;;;;;;;7.57;6.97;;;15.50;68.60;16.40;100562.00;;;;5059356;28;20189;-46
2023/12/14 07:15:25;;;;;;;7.50;6.87;;;15.40;68.50;16.40;100575.00;;;;5058756;28;20198;-46
2023/12/14 07:17:51;;;;;;;6.77;6.27;;;15.50;68.50;16.40;100571.00;;;;5055925;28;20288;-46
2023/12/14 07:20:16;;;;;;;7.00;6.40;;;15.40;68.40;16.40;100578.00;;;;5063629;28;20178;-45
2023/12/14 07:22:42;;;;;;;7.30;6.70;;;15.50;68.50;16.40;100581.00;;;;5061315;28;20260;-46
2023/12/14 07:25:08;;;;;;;7.50;6.70;;;15.50;68.50;16.40;100587.00;;;;5047408;28;20189;-46
2023/12/14 07:27:34;;;;;;;7.30;6.70;;;15.40;68.40;16.40;100577.00;;;;5060451;28;20216;-45
2023/12/14 07:30:00;;;;;;;7.43;6.83;;;15.40;68.40;16.40;100594.00;;;;5059005;28;20637;-46
2023/12/14 07:32:26;;;;;;;7.07;6.47;;;15.40;68.40;16.30;100596.00;;;;5059878;28;20205;-46
2023/12/14 07:34:52;;;;;;;6.93;6.40;;;15.40;68.40;16.40;100605.00;;;;5059608;28;20285;-45
2023/12/14 07:37:18;;;;;;;7.57;6.97;;;15.40;68.40;16.30;100613.00;;;;5059018;28;20284;-45
2023/12/14 07:39:44;;;;;;;7.20;6.67;;;15.40;68.30;16.30;100615.00;;;;5058379;28;20173;-44
2023/12/14 07:42:10;;;;;;;7.00;6.40;;;15.40;68.30;16.30;100618.00;;;;5058161;28;20170;-46
2023/12/14 07:44:35;;;;;;;7.27;6.67;;;15.40;68.30;16.30;100625.00;;;;5055158;28;20184;-46
2023/12/14 07:47:02;;;;;;;7.13;6.53;;;15.40;68.20;16.30;100634.00;;;;5055971;28;20204;-46
2023/12/14 07:49:28;;;;;;;7.40;6.80;;;15.40;68.30;16.30;100633.00;;;;5060085;28;20190;-46
2023/12/14 07:51:53;;;;;;;7.80;7.10;;;15.40;68.30;16.30;100646.00;;;;5058897;28;20647;-46
2023/12/14 07:54:19;;;;;;;7.47;6.87;;;15.40;68.20;16.30;100652.00;;;;5058846;28;20195;-45
2023/12/14 07:56:45;;;;;;;7.13;6.53;;;15.30;68.10;16.30;100655.00;;;;5057608;28;20202;-45
2023/12/14 07:59:11;;;;;;;7.87;7.20;;;15.30;68.10;16.30;100673.00;;;;5057931;28;20175;-46
2023/12/14 08:01:37;;;;;;;8.20;7.40;;;15.30;68.40;16.30;100663.00;;;;5053604;28;20178;-45
2023/12/14 08:04:03;;;;;;;7.73;7.03;;;15.30;68.60;16.30;100669.00;;;;5055338;28;20209;-46
2023/12/14 08:06:29;;;;;;;7.87;7.07;;;15.20;68.60;16.30;100672.00;;;;5057317;28;20244;-46
2023/12/14 08:08:57;;;;;;;8.13;7.33;;;15.20;68.90;16.30;100681.00;;;;5061873;28;20697;-45
2023/12/14 08:11:24;;;;;;;7.43;6.73;;;15.20;69.20;16.20;100678.00;;;;5051743;28;20189;-46
2023/12/14 08:13:50;;;;;;;7.87;7.10;;;15.20;69.20;16.20;100685.00;;;;5059587;28;20575;-46
2023/12/14 08:16:17;;;;;;;7.53;6.93;;;15.20;69.30;16.20;100692.00;;;;5047629;28;20198;-46
2023/12/14 08:18:46;;;;;;;7.40;6.67;;;15.30;69.60;16.20;100703.00;;;;5059156;28;20209;-45
2023/12/14 08:21:12;;;;;;;8.97;6.30;;;15.30;69.60;16.30;100704.00;;;;5053597;28;20178;-46
2023/12/14 08:23:38;;;;;;;7.20;6.60;;;15.40;69.60;16.30;100710.00;;;;5058438;28;20205;-45
2023/12/14 08:26:03;;;;;;;7.23;6.20;;;15.50;69.50;16.30;100659.00;;;;5051299;28;20228;-46
2023/12/14 08:28:29;;;;;;;6.53;6.03;;;15.60;69.40;16.40;100720.00;;;;5060694;28;20182;-45
2023/12/14 08:30:57;;;;;;;6.10;5.60;;;15.70;69.30;16.50;100717.00;;;;5057754;28;20648;-46
2023/12/14 08:33:23;;;;;;;6.47;5.90;;;15.80;69.20;16.50;100729.00;;;;5055761;28;20292;-44
2023/12/14 08:35:50;;;;;;;5.50;5.00;;;16.00;69.10;16.60;100732.00;;;;5053303;28;20186;-45
2023/12/14 08:38:16;;;;;;;5.70;5.20;;;16.10;68.90;16.70;100728.00;;;;5057733;28;20205;-45
2023/12/14 08:40:42;;;;;;;5.33;4.93;;;16.30;68.80;16.80;100739.00;;;;5059779;28;20811;-45
2023/12/14 08:43:07;;;;;;;5.10;4.60;;;16.40;68.60;16.90;100736.00;;;;5056538;28;20186;-45
2023/12/14 08:45:33;;;;;;;4.53;4.20;;;16.50;68.30;17.00;100746.00;;;;5055645;28;20182;-44
2023/12/14 08:47:59;;;;;;;5.33;4.80;;;16.70;68.50;17.10;100750.00;;;;5052600;28;20218;-44
2023/12/14 08:50:26;;;;;;;5.37;4.87;;;16.70;68.60;17.20;100741.00;;;;5056972;28;20590;-44
2023/12/14 08:52:52;;;;;;;5.40;4.30;;;16.90;68.80;17.30;100765.00;;;;5047668;28;20183;-44
2023/12/14 08:55:18;;;;;;;7.07;4.73;;;16.90;68.80;17.40;100763.00;;;;5055826;28;20213;-44
2023/12/14 08:57:44;;;;;;;10.50;4.70;;;16.90;68.90;17.50;100770.00;;;;5059036;28;20203;-44
2023/12/14 09:00:10;;;;;;;6.03;4.63;;;17.00;69.50;17.50;100778.00;;;;5056818;28;20173;-45
2023/12/14 09:02:36;;;;;;;11.73;4.40;;;17.00;69.40;17.60;100777.00;;;;5053805;28;20171;-44
2023/12/14 09:05:04;;;;;;;6.90;4.60;;;17.10;69.20;17.60;100780.00;;;;5058558;28;20191;-44
2023/12/14 09:07:30;;;;;;;4.70;4.20;;;17.10;69.00;17.70;100781.00;;;;5058241;28;20678;-44
2023/12/14 09:09:56;;;;;;;4.43;4.03;;;17.20;69.10;17.70;100797.00;;;;5054969;28;20811;-44
2023/12/14 09:12:21;;;;;;;5.50;4.70;;;17.20;69.20;17.70;100796.00;;;;5058598;28;20179;-44
2023/12/14 09:14:47;;;;;;;4.97;4.50;;;17.20;69.30;17.80;100801.00;;;;5058516;28;20209;-44
2023/12/14 09:17:13;;;;;;;5.93;4.37;;;17.20;69.20;17.80;100814.00;;;;5056615;28;20201;-45
2023/12/14 09:19:39;;;;;;;5.47;4.50;;;17.20;69.20;17.80;100815.00;;;;5060804;28;20202;-45
2023/12/14 09:22:04;;;;;;;4.80;4.37;;;17.20;69.10;17.90;100816.00;;;;5057016;28;20556;-44
2023/12/14 09:24:30;;;;;;;4.77;4.37;;;17.20;69.10;17.90;100817.00;;;;5059622;28;20948;-44
2023/12/14 09:26:56;;;;;;;6.03;4.20;;;17.20;69.20;17.90;100821.00;;;;5059065;28;20578;-44
2023/12/14 09:29:22;;;;;;;5.00;4.57;;;17.20;69.20;17.90;100824.00;;;;5058106;28;20181;-44
2023/12/14 09:31:48;;;;;;;5.37;4.20;;;17.20;69.30;17.90;100825.00;;;;5059022;28;20187;-44
2023/12/14 09:34:14;;;;;;;4.37;3.97;;;17.20;69.40;17.90;100834.00;;;;5053372;28;20413;-43
2023/12/14 09:36:40;;;;;;;4.80;4.40;;;17.20;69.50;17.90;100835.00;;;;5060104;28;20737;-44
2023/12/14 09:39:10;;;;;;;4.93;4.30;;;17.20;69.50;17.90;100847.00;;;;5056826;28;20239;-44
2023/12/14 09:41:38;;;;;;;4.83;4.37;;;17.10;69.50;17.90;100857.00;;;;5059019;28;20173;-44
2023/12/14 09:44:05;;;;;;;4.70;4.20;;;17.10;69.60;17.90;100853.00;;;;5056668;28;20177;-44
2023/12/14 09:46:32;;;;;;;4.70;4.20;;;17.00;69.60;17.90;100856.00;;;;5058224;28;20201;-43
2023/12/14 09:48:57;;;;;;;4.77;4.37;;;17.10;69.80;17.80;100852.00;;;;5039659;28;20243;-44
2023/12/14 09:51:23;;;;;;;5.37;4.20;;;17.00;69.60;17.80;100854.00;;;;5058097;28;20185;-44
2023/12/14 09:53:50;;;;;;;4.93;4.40;;;17.00;69.70;17.80;100858.00;;;;5057414;28;20212;-44
2023/12/14 09:56:16;;;;;;;4.63;4.20;;;17.00;69.70;17.80;100861.00;;;;5057171;28;20194;-43
2023/12/14 09:58:42;;;;;;;4.63;4.23;;;17.00;69.80;17.80;100876.00;;;;5059715;28;20178;-44
2023/12/14 10:01:28;;;;;;;4.70;4.30;;;17.00;69.80;17.80;100866.00;;;;5057869;28;20339;-44
2023/12/14 10:04:15;;;;;;;4.50;4.10;;;17.00;69.90;17.80;100881.00;;;;5058835;28;20273;-44
2023/12/14 10:06:42;;;;;;;4.60;4.20;;;16.90;70.10;17.70;100872.00;;;;5057155;28;20196;-44
2023/12/14 10:09:13;;;;;;;4.60;4.20;;;16.90;70.60;17.70;100874.00;;;;5060492;28;20723;-44
2023/12/14 10:11:42;;;;;;;5.03;4.63;;;16.90;69.80;17.70;100873.00;;;;5056845;28;20634;-44
2023/12/14 10:14:26;;;;;;;4.70;4.30;;;16.90;69.90;17.70;100887.00;;;;5056349;28;20200;-43
2023/12/14 10:16:52;;;;;;;4.80;4.40;;;16.80;69.80;17.70;100895.00;;;;5060362;28;20617;-44
2023/12/14 10:19:18;;;;;;;4.80;4.40;;;16.80;70.00;17.60;100895.00;;;;5061461;28;20181;-44
2023/12/14 10:21:46;;;;;;;4.70;4.30;;;16.80;70.00;17.60;100899.00;;;;5063507;28;20262;-46
2023/12/14 10:24:12;;;;;;;4.70;4.30;;;16.80;70.00;17.60;100902.00;;;;5039108;28;20651;-44
2023/12/14 10:26:38;;;;;;;4.70;4.30;;;16.70;69.80;17.60;100906.00;;;;5063350;28;20203;-44
2023/12/14 10:29:06;;;;;;;5.00;4.60;;;16.80;70.10;17.60;100914.00;;;;5059407;28;20212;-45
2023/12/14 10:31:37;;;;;;;4.90;4.50;;;16.70;70.00;17.60;100915.00;;;;5063295;28;20185;-44
2023/12/14 10:34:06;;;;;;;4.70;4.30;;;16.70;70.00;17.50;100916.00;;;;5058197;28;20210;-44
2023/12/14 10:36:32;;;;;;;4.80;4.40;;;16.70;70.10;17.50;100927.00;;;;5063211;28;20220;-44
2023/12/14 10:38:59;;;;;;;4.57;4.17;;;16.70;70.10;17.50;100929.00;;;;5061126;28;20190;-44
2023/12/14 10:41:25;;;;;;;4.70;4.30;;;16.70;70.10;17.50;100934.00;;;;5061785;28;20191;-45
2023/12/14 10:43:53;;;;;;;4.87;4.47;;;16.60;70.00;17.50;100944.00;;;;5061560;28;20657;-45